Time;durP1;ratioP1;P1;durP2;ratioP2;P2;SDS_P1;SDS_P2;PMS_P1;PMS_P2;Temp;Humidity;BMP_temperature;BMP_pressure;BME280_temperature;BME280_humidity;BME280_pressure;Samples;Min_cycle;Max_cycle;Signal;HPM_P1;HPM_P2
2022/01/23 00:00:17;;;;;;;17.57;6.07;;;-3276.40;71.60;;;;;;5043410;28;20013;-88
2022/01/23 00:02:43;;;;;;;10.67;6.30;;;-3276.40;71.50;;;;;;5048925;28;20120;-88
2022/01/23 00:05:09;;;;;;;14.10;4.37;;;-3276.40;71.40;;;;;;5045376;28;20025;-89
2022/01/23 00:07:35;;;;;;;;;;;-3276.40;71.30;;;;;;5042279;28;20035;-89
2022/01/23 00:10:02;;;;;;;26.07;8.63;;;-3276.40;71.30;;;;;;5044408;28;19916;-88
2022/01/23 00:12:31;;;;;;;29.10;8.37;;;-3276.50;71.10;;;;;;5042335;28;20033;-88
2022/01/23 00:17:49;;;;;;;32.03;10.77;;;-3276.40;71.30;;;;;;5045905;28;20577;-88
2022/01/23 00:20:15;;;;;;;32.50;10.67;;;-3276.40;71.30;;;;;;5045326;28;20496;-89
2022/01/23 00:22:45;;;;;;;;;;;-3276.40;71.30;;;;;;5046663;28;20017;-88
2022/01/23 00:30:43;;;;;;;25.37;9.93;;;-3276.40;71.30;;;;;;5048723;28;20103;-89
2022/01/23 00:33:09;;;;;;;31.40;11.07;;;-3276.40;71.30;;;;;;5043254;28;20482;-89
2022/01/23 00:35:37;;;;;;;28.60;8.87;;;-3276.30;71.40;;;;;;5047597;28;20041;-89
2022/01/23 00:38:05;;;;;;;21.93;8.60;;;-3276.30;71.40;;;;;;5044082;28;20032;-89
2022/01/23 00:40:32;;;;;;;20.40;7.40;;;-3276.30;71.40;;;;;;5046449;28;20040;-88
2022/01/23 00:43:00;;;;;;;33.60;11.43;;;-3276.40;71.50;;;;;;5043509;28;20105;-89
2022/01/23 00:47:58;;;;;;;28.70;9.13;;;-3276.30;71.50;;;;;;5044628;28;20132;-89
2022/01/23 00:50:24;;;;;;;30.50;10.90;;;-3276.30;71.50;;;;;;5048849;28;20021;-89
2022/01/23 00:52:49;;;;;;;;;;;-3276.30;71.50;;;;;;5040825;28;20332;-88
2022/01/23 00:55:15;;;;;;;17.27;5.30;;;-3276.30;71.60;;;;;;5047226;28;19958;-89
2022/01/23 00:57:41;;;;;;;;;;;-3276.30;71.40;;;;;;5041817;28;20082;-87
2022/01/23 01:00:08;;;;;;;21.03;6.70;;;-3276.30;71.40;;;;;;5047004;28;20418;-88
2022/01/23 01:02:34;;;;;;;21.20;6.13;;;-3276.30;71.30;;;;;;5038906;28;20025;-88
2022/01/23 01:04:59;;;;;;;;;;;-3276.20;71.40;;;;;;5046147;28;20021;-89
2022/01/23 01:07:25;;;;;;;18.30;6.70;;;-3276.20;71.50;;;;;;5045454;28;19913;-89
2022/01/23 01:09:53;;;;;;;;;;;-3276.20;71.40;;;;;;5054288;28;20018;-89
2022/01/23 01:12:24;;;;;;;17.53;6.10;;;-3276.20;71.50;;;;;;5049320;28;19951;-88
2022/01/23 01:30:09;;;;;;;14.13;5.23;;;-3276.20;71.40;;;;;;5048195;28;20033;-89
2022/01/23 01:31:32;;;;;;;13.60;5.93;;;-3276.10;71.60;;;;;;5051597;28;20047;-88
2022/01/23 01:36:58;;;;;;;22.90;6.67;;;-3276.00;71.70;;;;;;5004844;28;20084;-89
2022/01/23 01:39:27;;;;;;;;;;;-3276.00;71.80;;;;;;5038292;28;20029;-88
2022/01/23 01:41:54;;;;;;;5.70;3.10;;;-3276.00;71.80;;;;;;5047728;28;19909;-88
2022/01/23 01:44:22;;;;;;;10.40;4.30;;;-3276.00;71.70;;;;;;5050550;28;20453;-88
2022/01/23 01:46:48;;;;;;;21.13;6.73;;;-3276.00;71.80;;;;;;5047946;28;20036;-88
2022/01/23 01:49:14;;;;;;;12.23;3.87;;;-3276.00;71.90;;;;;;5035342;28;20026;-87
2022/01/23 01:51:40;;;;;;;25.53;6.83;;;-3276.00;71.90;;;;;;5046706;28;20037;-88
2022/01/23 01:54:17;;;;;;;;;;;-3276.00;72.00;;;;;;5054534;28;20459;-88
2022/01/23 01:56:53;;;;;;;8.23;4.20;;;-3276.00;72.00;;;;;;5057391;28;19909;-88
2022/01/23 02:09:40;;;;;;;;;;;-3276.00;71.90;;;;;;5066694;28;20096;-89
2022/01/23 02:55:46;;;;;;;16.97;4.63;;;-3276.10;71.00;;;;;;5055143;28;20036;-89
2022/01/23 02:58:15;;;;;;;10.50;4.67;;;-3276.10;71.00;;;;;;5053946;28;20121;-89
2022/01/23 03:01:02;;;;;;;18.50;5.40;;;-3276.10;71.10;;;;;;5052010;28;20017;-89
2022/01/23 03:03:28;;;;;;;6.80;3.93;;;-3276.10;71.10;;;;;;5050340;28;20025;-89
2022/01/23 03:11:28;;;;;;;10.30;4.47;;;-3276.10;70.80;;;;;;5050058;28;20525;-88
2022/01/23 03:14:02;;;;;;;16.83;4.43;;;-3276.10;70.90;;;;;;5049340;28;20030;-89
2022/01/23 03:30:15;;;;;;;13.13;5.23;;;-3276.00;71.10;;;;;;5054053;28;20440;-88
2022/01/23 03:32:45;;;;;;;6.10;3.17;;;-3276.00;71.10;;;;;;5047546;28;20033;-88
2022/01/23 03:35:11;;;;;;;12.23;4.47;;;-3276.00;71.00;;;;;;5049897;28;20105;-89
2022/01/23 03:37:37;;;;;;;;;;;-3276.00;71.00;;;;;;5049445;28;20052;-89
2022/01/23 03:40:04;;;;;;;11.37;5.17;;;-3276.00;71.10;;;;;;5053198;28;19913;-90
2022/01/23 03:42:32;;;;;;;19.40;6.17;;;-3276.00;70.90;;;;;;5051803;28;20026;-89
2022/01/23 03:47:41;;;;;;;19.00;6.43;;;-3275.90;71.10;;;;;;5057915;28;20021;-88
2022/01/23 03:50:10;;;;;;;11.53;6.23;;;-3275.90;71.10;;;;;;5046966;28;20063;-89
2022/01/23 03:52:37;;;;;;;17.90;6.83;;;-3275.90;71.20;;;;;;5045433;28;20025;-87
2022/01/23 03:55:05;;;;;;;21.60;8.43;;;-3275.80;71.20;;;;;;5046681;28;20028;-89
2022/01/23 03:57:31;;;;;;;18.80;6.53;;;-3275.80;71.30;;;;;;5043002;28;20021;-89
2022/01/23 03:59:56;;;;;;;;;;;-3275.80;71.30;;;;;;5043180;28;20037;-89
2022/01/23 04:02:22;;;;;;;18.57;6.43;;;-3275.80;71.40;;;;;;5045069;28;20281;-89
2022/01/23 04:04:47;;;;;;;14.60;5.88;;;-3275.80;71.10;;;;;;5045991;28;20036;-89
2022/01/23 04:07:17;;;;;;;;;;;-3275.90;71.30;;;;;;5047494;28;20022;-88
2022/01/23 04:09:43;;;;;;;22.23;7.30;;;-3275.80;71.30;;;;;;5046282;28;19952;-88
2022/01/23 04:12:19;;;;;;;9.37;4.37;;;-3275.80;71.10;;;;;;5046998;28;20024;-88
2022/01/23 04:14:51;;;;;;;10.15;4.25;;;-3275.70;71.30;;;;;;5045805;28;20067;-89
2022/01/23 04:18:19;;;;;;;15.77;6.33;;;-3275.70;71.40;;;;;;5041282;28;20049;-88
2022/01/23 04:33:46;;;;;;;20.30;9.20;;;-3275.70;71.50;;;;;;5044866;28;20135;-89
2022/01/23 04:48:23;;;;;;;17.57;8.90;;;-3275.70;71.60;;;;;;5045354;28;20064;-89
2022/01/23 05:01:25;;;;;;;18.38;8.73;;;-3275.60;71.60;;;;;;5044500;28;20032;-88
2022/01/23 05:06:43;;;;;;;21.07;9.70;;;-3275.60;71.70;;;;;;5048101;28;20056;-88
2022/01/23 05:09:11;;;;;;;27.80;9.40;;;-3275.70;71.70;;;;;;5050494;28;20021;-88
2022/01/23 05:11:42;;;;;;;37.70;13.50;;;-3275.60;71.70;;;;;;5054549;28;20025;-88
2022/01/23 05:14:08;;;;;;;28.73;11.57;;;-3275.70;71.70;;;;;;5041034;28;20115;-88
2022/01/23 05:16:34;;;;;;;;;;;-3275.70;71.70;;;;;;5064707;28;20025;-89
2022/01/23 05:19:01;;;;;;;35.23;11.17;;;-3275.70;71.70;;;;;;5060381;28;19917;-89
2022/01/23 05:24:00;;;;;;;27.70;11.30;;;-3275.70;71.60;;;;;;5049941;28;20081;-88
2022/01/23 05:26:26;;;;;;;22.70;9.67;;;-3275.70;71.70;;;;;;5063981;28;20029;-89
2022/01/23 05:28:51;;;;;;;;;;;-3275.60;71.70;;;;;;5067981;28;20039;-88
2022/01/23 05:31:16;;;;;;;23.37;7.43;;;-3275.60;71.80;;;;;;5048981;28;19920;-89
2022/01/23 05:33:42;;;;;;;;;;;-3275.60;71.60;;;;;;5050727;28;20029;-88
2022/01/23 05:36:07;;;;;;;29.40;10.47;;;-3275.60;71.60;;;;;;5047612;28;19909;-89
2022/01/23 05:38:35;;;;;;;12.20;5.75;;;-3275.60;71.50;;;;;;5048407;28;20017;-89
2022/01/23 05:41:01;;;;;;;14.90;7.37;;;-3275.50;71.60;;;;;;5043833;28;20385;-89
2022/01/23 05:43:27;;;;;;;;;;;-3275.50;71.70;;;;;;5042629;28;20055;-90
2022/01/23 05:45:52;;;;;;;4.20;2.97;;;-3275.50;71.80;;;;;;5043508;28;19998;-88
2022/01/23 05:48:19;;;;;;;34.20;12.60;;;-3275.50;71.70;;;;;;5038795;28;20029;-87
2022/01/23 05:50:46;;;;;;;18.70;7.40;;;-3275.50;71.80;;;;;;5042108;28;20045;-87
2022/01/23 05:53:12;;;;;;;13.47;7.70;;;-3275.50;71.80;;;;;;5040390;28;20403;-87
2022/01/23 05:55:38;;;;;;;;;;;-3275.50;71.90;;;;;;5049476;28;20025;-88
2022/01/23 05:58:04;;;;;;;33.50;13.03;;;-3275.50;71.90;;;;;;5043692;28;19909;-89
2022/01/23 06:00:29;;;;;;;;;;;-3275.50;71.70;;;;;;5048974;28;20017;-88
2022/01/23 06:02:55;;;;;;;30.53;12.87;;;-3275.50;71.80;;;;;;5044912;28;19920;-89
2022/01/23 06:05:20;;;;;;;;;;;-3275.50;71.70;;;;;;5045005;28;20074;-89
2022/01/23 06:07:48;;;;;;;27.77;12.67;;;-3275.50;71.90;;;;;;5045545;28;20266;-89
2022/01/23 06:10:22;;;;;;;19.03;9.57;;;-3275.50;71.80;;;;;;5044750;28;20033;-89
2022/01/23 06:12:48;;;;;;;35.23;12.87;;;-3275.50;71.90;;;;;;5044125;28;20043;-89
2022/01/23 06:15:15;;;;;;;20.40;9.87;;;-3275.40;72.00;;;;;;5046687;28;20029;-88
2022/01/23 06:17:41;;;;;;;25.23;9.67;;;-3275.40;72.00;;;;;;5043465;28;20033;-88
2022/01/23 06:20:08;;;;;;;;;;;-3275.40;72.00;;;;;;5042042;28;20048;-88
2022/01/23 06:22:34;;;;;;;28.77;10.63;;;-3275.50;72.10;;;;;;5053847;28;19917;-88
2022/01/23 06:24:59;;;;;;;;;;;-3275.50;71.90;;;;;;5045514;28;20029;-89
2022/01/23 06:27:28;;;;;;;22.57;9.57;;;-3275.50;72.00;;;;;;5049064;28;19901;-88
2022/01/23 06:29:53;;;;;;;43.53;15.10;;;-3275.50;71.80;;;;;;5041906;28;20079;-89
2022/01/23 06:32:19;;;;;;;;;;;-3275.50;71.90;;;;;;5047911;28;20017;-88
2022/01/23 06:34:46;;;;;;;28.63;9.83;;;-3275.50;72.10;;;;;;5044996;28;19917;-89
2022/01/23 06:37:12;;;;;;;12.23;5.90;;;-3275.60;71.90;;;;;;5044581;28;20025;-88
2022/01/23 06:39:38;;;;;;;16.43;6.13;;;-3275.60;71.90;;;;;;5040788;28;20049;-87
2022/01/23 06:42:04;;;;;;;;;;;-3275.70;72.00;;;;;;5043404;28;20028;-87
2022/01/23 06:44:29;;;;;;;20.60;7.57;;;-3275.70;72.00;;;;;;5044676;28;19909;-89
2022/01/23 06:46:55;;;;;;;27.55;11.07;;;-3275.70;71.70;;;;;;5042832;28;20029;-89
2022/01/23 06:49:21;;;;;;;;;;;-3275.70;71.70;;;;;;5042551;28;20060;-89
2022/01/23 06:51:49;;;;;;;42.40;16.33;;;-3275.70;71.80;;;;;;5045260;28;19908;-87
2022/01/23 06:54:14;;;;;;;27.43;10.30;;;-3275.70;71.60;;;;;;5044108;28;20021;-89
2022/01/23 06:56:40;;;;;;;;;;;-3275.70;71.70;;;;;;5050199;28;20029;-89
2022/01/23 06:59:05;;;;;;;18.30;8.87;;;-3275.80;71.80;;;;;;5051042;28;19939;-88
2022/01/23 07:01:31;;;;;;;;;;;-3275.80;71.60;;;;;;5045593;28;20013;-89
2022/01/23 07:03:56;;;;;;;27.97;11.03;;;-3275.80;71.60;;;;;;5045588;28;19909;-89
2022/01/23 07:06:22;;;;;;;;;;;-3275.80;71.50;;;;;;5044380;28;20029;-88
2022/01/23 07:08:47;;;;;;;23.23;11.43;;;-3275.80;71.60;;;;;;5045078;28;19908;-87
2022/01/23 07:11:13;;;;;;;12.90;5.80;;;-3275.70;71.50;;;;;;5047336;28;20018;-87
2022/01/23 07:13:38;;;;;;;;;;;-3275.70;71.70;;;;;;5048400;28;20041;-88
2022/01/23 07:16:06;;;;;;;39.07;15.30;;;-3275.70;71.80;;;;;;5050898;28;19916;-89
2022/01/23 07:18:35;;;;;;;33.53;15.33;;;-3275.80;71.60;;;;;;5048006;28;20034;-86
2022/01/23 07:21:01;;;;;;;34.07;15.47;;;-3275.80;71.70;;;;;;5047964;28;20035;-89
2022/01/23 07:23:26;;;;;;;;;;;-3275.80;71.80;;;;;;5039576;28;20053;-88
2022/01/23 07:26:15;;;;;;;37.37;17.10;;;-3275.90;71.80;;;;;;5074358;28;19936;-88
2022/01/23 07:28:43;;;;;;;34.57;14.23;;;-3275.90;71.60;;;;;;5038242;28;20068;-87
2022/01/23 07:31:13;;;;;;;46.83;18.73;;;-3276.00;71.60;;;;;;5031312;28;20430;-89
2022/01/23 07:33:39;;;;;;;29.30;14.87;;;-3276.00;71.60;;;;;;5029415;28;20113;-88
2022/01/23 07:36:04;;;;;;;;;;;-3276.10;71.60;;;;;;5029746;28;20026;-89
2022/01/23 07:38:30;;;;;;;30.33;12.63;;;-3276.10;71.60;;;;;;5026710;28;19909;-89
2022/01/23 07:40:56;;;;;;;;;;;-3276.20;71.30;;;;;;5029062;28;20022;-87
2022/01/23 07:43:21;;;;;;;41.00;17.27;;;-3276.20;71.40;;;;;;5029354;28;19916;-88
2022/01/23 07:45:47;;;;;;;;;;;-3276.20;71.20;;;;;;5030389;28;20036;-88
2022/01/23 07:48:13;;;;;;;29.87;11.23;;;-3276.20;71.30;;;;;;5025667;28;19917;-88
2022/01/23 07:50:39;;;;;;;41.00;17.80;;;-3276.20;71.10;;;;;;5027394;28;20507;-88
2022/01/23 07:53:04;;;;;;;;;;;-3276.20;71.20;;;;;;5023516;28;20050;-86
2022/01/23 07:55:33;;;;;;;43.73;17.27;;;-3276.30;71.20;;;;;;5024355;28;19909;-88
2022/01/23 07:58:05;;;;;;;51.03;18.87;;;-3276.30;71.00;;;;;;5009317;28;20603;-89
2022/01/23 08:00:31;;;;;;;45.53;20.23;;;-3276.40;71.10;;;;;;5046246;28;20026;-88
2022/01/23 08:02:56;;;;;;;;;;;-3276.50;71.00;;;;;;5043848;28;20098;-88
2022/01/23 08:05:22;;;;;;;46.13;18.63;;;-3276.60;71.10;;;;;;5045430;28;19952;-89
2022/01/23 08:07:47;;;;;;;37.83;17.90;;;-3276.70;70.80;;;;;;5045189;28;20422;-88
2022/01/23 08:10:15;;;;;;;;;;;-3276.70;70.80;;;;;;5029413;28;20071;-88
2022/01/23 08:12:41;;;;;;;;;;;0.00;70.70;;;;;;5026543;28;19948;-89
2022/01/23 08:15:08;;;;;;;30.05;8.98;;;0.00;70.50;;;;;;5046480;28;20378;-87
2022/01/23 08:17:34;;;;;;;42.43;17.30;;;0.00;70.30;;;;;;5045124;28;20037;-91
2022/01/23 08:20:00;;;;;;;;;;;0.00;70.30;;;;;;5057717;28;20060;-86
2022/01/23 08:22:28;;;;;;;64.75;24.70;;;0.00;70.50;;;;;;5050950;28;19909;-86
2022/01/23 08:24:55;;;;;;;41.63;14.27;;;0.10;70.10;;;;;;5039993;28;20044;-87
2022/01/23 08:27:22;;;;;;;44.30;19.07;;;0.20;70.10;;;;;;5031393;28;20375;-86
2022/01/23 08:29:48;;;;;;;53.27;20.70;;;0.20;70.10;;;;;;5041273;28;20042;-86
2022/01/23 08:32:13;;;;;;;;;;;0.30;70.20;;;;;;5059900;28;20013;-86
2022/01/23 08:34:39;;;;;;;39.43;17.70;;;0.30;70.10;;;;;;5055814;28;20075;-86
2022/01/23 08:37:06;;;;;;;40.67;16.48;;;0.40;69.80;;;;;;5049891;28;20010;-86
2022/01/23 08:39:35;;;;;;;35.37;16.87;;;0.40;69.80;;;;;;5057720;28;20052;-85
2022/01/23 08:42:07;;;;;;;38.37;13.60;;;0.50;69.80;;;;;;5040349;28;20069;-86
2022/01/23 08:44:33;;;;;;;42.23;16.27;;;0.60;69.80;;;;;;5052339;28;20022;-86
2022/01/23 08:46:59;;;;;;;;;;;0.70;69.60;;;;;;5063137;28;20490;-88
2022/01/23 08:49:26;;;;;;;42.70;15.13;;;0.80;69.50;;;;;;5024400;28;19909;-87
2022/01/23 08:51:54;;;;;;;47.60;17.33;;;0.80;69.20;;;;;;5027920;28;20481;-87
2022/01/23 08:54:19;;;;;;;37.63;17.33;;;0.80;69.20;;;;;;5042662;28;20034;-86
2022/01/23 08:56:45;;;;;;;;;;;0.80;69.20;;;;;;5021417;28;20094;-88
2022/01/23 08:59:13;;;;;;;52.57;20.03;;;0.90;69.10;;;;;;5023837;28;19964;-86
2022/01/23 09:01:39;;;;;;;40.23;18.07;;;0.90;68.80;;;;;;5039006;28;20032;-85
2022/01/23 09:04:05;;;;;;;;;;;1.00;68.70;;;;;;5021978;28;20026;-86
2022/01/23 09:06:31;;;;;;;32.37;13.10;;;1.00;68.30;;;;;;5038738;28;19992;-86
2022/01/23 09:08:59;;;;;;;;;;;1.00;68.00;;;;;;5022814;28;20455;-87
2022/01/23 09:11:28;;;;;;;35.10;13.83;;;1.10;68.00;;;;;;5036765;28;19909;-87
2022/01/23 09:14:17;;;;;;;41.07;15.33;;;1.10;67.70;;;;;;5038879;28;20033;-87
2022/01/23 09:16:44;;;;;;;34.50;13.23;;;1.20;67.80;;;;;;5023160;28;20030;-90
2022/01/23 09:19:10;;;;;;;62.20;23.17;;;1.30;67.80;;;;;;5026943;28;20550;-86
2022/01/23 09:21:37;;;;;;;36.63;12.57;;;1.30;67.80;;;;;;5033295;28;20029;-86
2022/01/23 09:24:04;;;;;;;48.00;17.47;;;1.40;67.80;;;;;;5034327;28;20036;-85
2022/01/23 09:26:30;;;;;;;60.77;23.77;;;1.40;67.50;;;;;;5037128;28;20025;-85
2022/01/23 09:28:59;;;;;;;38.23;16.53;;;1.40;67.50;;;;;;5020887;28;20033;-89
2022/01/23 09:31:33;;;;;;;87.40;31.27;;;1.50;67.50;;;;;;5037532;28;20040;-88
2022/01/23 09:33:59;;;;;;;122.30;43.80;;;1.60;67.40;;;;;;5038242;28;20026;-89
2022/01/23 09:36:24;;;;;;;;;;;1.60;67.20;;;;;;5034806;28;20025;-85
2022/01/23 09:38:51;;;;;;;57.00;22.80;;;1.70;67.20;;;;;;5039241;28;20330;-85
2022/01/23 09:41:17;;;;;;;;;;;1.70;66.20;;;;;;5036610;28;20022;-85
2022/01/23 09:43:43;;;;;;;21.47;7.67;;;1.70;66.50;;;;;;5033531;28;19910;-84
2022/01/23 09:46:09;;;;;;;49.50;20.03;;;1.80;66.00;;;;;;5036038;28;20052;-85
2022/01/23 09:48:35;;;;;;;;;;;1.80;66.00;;;;;;5035738;28;20138;-85
2022/01/23 09:51:03;;;;;;;73.23;27.87;;;1.80;66.10;;;;;;5024741;28;19959;-85
2022/01/23 09:53:30;;;;;;;44.20;20.93;;;1.90;65.90;;;;;;5040372;28;20033;-87
2022/01/23 09:56:03;;;;;;;51.93;18.57;;;2.00;66.00;;;;;;5044500;28;20092;-87
2022/01/23 09:58:28;;;;;;;50.83;17.90;;;2.10;65.70;;;;;;5034013;28;20072;-86
2022/01/23 10:00:54;;;;;;;;;;;2.30;65.60;;;;;;5036025;28;20022;-86
2022/01/23 10:03:21;;;;;;;19.37;8.07;;;2.50;65.40;;;;;;5023404;28;20285;-86
2022/01/23 10:05:55;;;;;;;24.63;9.30;;;2.60;64.60;;;;;;5045762;28;20116;-85
2022/01/23 10:08:22;;;;;;;13.40;6.03;;;2.70;64.40;;;;;;5036583;28;20027;-84
2022/01/23 10:10:53;;;;;;;27.70;9.70;;;2.80;64.50;;;;;;5040753;28;20048;-85
2022/01/23 10:13:25;;;;;;;22.93;9.17;;;2.90;64.00;;;;;;5035841;28;20045;-85
2022/01/23 10:15:52;;;;;;;24.17;9.50;;;3.10;63.80;;;;;;5033148;28;20041;-86
2022/01/23 10:18:18;;;;;;;;;;;3.10;63.80;;;;;;5020592;28;20127;-85
2022/01/23 10:20:45;;;;;;;24.03;9.33;;;3.30;63.60;;;;;;5032551;28;21281;-86
2022/01/23 10:23:11;;;;;;;24.67;12.00;;;3.40;63.30;;;;;;5029545;28;20040;-85
2022/01/23 10:25:41;;;;;;;27.00;10.47;;;3.50;63.30;;;;;;5019868;28;20034;-85
2022/01/23 10:28:08;;;;;;;25.40;10.77;;;3.70;63.20;;;;;;5041306;28;20050;-85
2022/01/23 10:30:42;;;;;;;30.03;11.17;;;3.80;62.20;;;;;;5033210;28;20085;-83
2022/01/23 10:33:14;;;;;;;27.13;10.87;;;3.80;62.20;;;;;;5032258;28;20069;-85
2022/01/23 10:35:57;;;;;;;27.57;10.83;;;3.80;61.70;;;;;;5030348;28;20025;-82
2022/01/23 10:38:25;;;;;;;26.67;10.63;;;3.80;61.60;;;;;;5034667;28;20467;-82
2022/01/23 10:41:05;;;;;;;29.57;12.13;;;3.90;61.90;;;;;;5034823;28;20041;-85
2022/01/23 10:49:56;;;;;;;24.00;11.30;;;4.10;61.50;;;;;;5019031;28;20061;-84
2022/01/23 10:52:33;;;;;;;25.43;9.00;;;4.30;61.50;;;;;;5021981;28;20476;-86
2022/01/23 10:55:04;;;;;;;26.93;10.47;;;4.30;61.20;;;;;;5018298;28;20401;-86
2022/01/23 10:57:44;;;;;;;26.27;10.33;;;4.30;61.00;;;;;;5029018;28;20118;-84
2022/01/23 11:00:25;;;;;;;26.93;10.70;;;4.30;60.90;;;;;;5039811;28;20022;-86
2022/01/23 11:02:51;;;;;;;28.50;12.10;;;4.30;60.70;;;;;;5020868;28;20026;-85
2022/01/23 11:05:19;;;;;;;23.10;10.07;;;4.40;60.80;;;;;;5040363;28;20087;-84
2022/01/23 11:07:46;;;;;;;20.30;9.10;;;4.50;60.50;;;;;;5032983;28;20022;-92
2022/01/23 11:10:19;;;;;;;24.53;11.63;;;4.50;60.10;;;;;;5024772;28;20418;-85
2022/01/23 11:18:31;;;;;;;30.67;11.13;;;4.70;59.30;;;;;;5028681;28;20118;-93
2022/01/23 11:20:58;;;;;;;25.83;11.03;;;4.60;59.00;;;;;;5040302;28;20022;-94
2022/01/23 11:23:35;;;;;;;21.53;9.60;;;4.60;59.30;;;;;;5042003;28;20276;-92
2022/01/23 11:26:03;;;;;;;23.42;9.00;;;4.60;59.10;;;;;;5042583;28;20026;-91
2022/01/23 11:28:31;;;;;;;21.07;9.07;;;4.60;58.90;;;;;;5023145;28;20044;-93
2022/01/23 11:30:59;;;;;;;25.40;10.07;;;4.60;58.40;;;;;;5040144;28;20022;-93
2022/01/23 11:33:25;;;;;;;23.53;9.67;;;4.60;58.50;;;;;;5023973;28;20072;-95
2022/01/23 11:35:51;;;;;;;19.27;8.63;;;4.50;58.40;;;;;;5043247;28;20045;-94
2022/01/23 11:38:21;;;;;;;18.80;8.10;;;4.50;58.40;;;;;;5040181;28;20018;-92
2022/01/23 11:54:40;;;;;;;21.43;7.30;;;5.10;57.90;;;;;;5059526;28;20047;-94
2022/01/23 11:57:34;;;;;;;26.97;8.90;;;5.20;57.40;;;;;;5075514;28;20033;-94
2022/01/23 12:00:26;;;;;;;25.30;9.27;;;5.20;57.40;;;;;;5076311;28;20041;-94
2022/01/23 12:03:07;;;;;;;21.87;9.27;;;5.30;57.40;;;;;;5076461;28;20013;-94
2022/01/23 12:05:33;;;;;;;26.57;6.77;;;5.30;57.40;;;;;;5076690;28;20021;-94
2022/01/23 12:08:18;;;;;;;22.33;8.43;;;5.30;57.50;;;;;;5073287;28;20044;-93
2022/01/23 12:11:16;;;;;;;22.77;8.70;;;5.50;57.10;;;;;;5061730;28;20450;-93
2022/01/23 12:16:32;;;;;;;;;;;5.80;56.70;;;;;;5044316;28;20091;-93
2022/01/23 12:19:18;;;;;;;24.30;8.63;;;5.80;56.60;;;;;;5057814;28;19990;-92
2022/01/23 12:21:45;;;;;;;20.58;8.95;;;5.90;56.20;;;;;;5057490;28;20030;-94
2022/01/23 12:24:14;;;;;;;18.60;8.33;;;5.90;56.40;;;;;;5060600;28;20046;-92
2022/01/23 12:26:43;;;;;;;21.70;8.80;;;5.90;56.30;;;;;;5060369;28;20024;-94
2022/01/23 12:29:14;;;;;;;18.67;9.13;;;5.80;56.30;;;;;;5060630;28;20069;-92
2022/01/23 12:31:41;;;;;;;21.97;8.40;;;5.80;56.40;;;;;;5060072;28;20079;-92
2022/01/23 12:34:07;;;;;;;25.97;10.43;;;5.70;56.50;;;;;;5059536;28;20053;-94
2022/01/23 12:36:34;;;;;;;;;;;5.70;56.40;;;;;;5059958;28;20041;-94
2022/01/23 12:39:08;;;;;;;23.98;9.15;;;5.60;56.70;;;;;;5049475;28;19917;-94
2022/01/23 12:41:39;;;;;;;24.10;9.43;;;5.70;56.40;;;;;;5038299;28;20069;-94
2022/01/23 12:44:07;;;;;;;24.93;10.27;;;5.60;56.40;;;;;;5038690;28;20026;-94
2022/01/23 12:46:41;;;;;;;24.53;10.37;;;5.60;56.40;;;;;;5038579;28;20030;-94
2022/01/23 12:49:38;;;;;;;24.83;9.97;;;5.60;56.40;;;;;;5021439;28;20048;-94
2022/01/23 12:52:09;;;;;;;23.92;11.18;;;5.50;56.30;;;;;;5038374;28;20510;-94
2022/01/23 12:54:52;;;;;;;25.60;10.47;;;5.40;56.50;;;;;;5038403;28;20041;-93
2022/01/23 12:57:30;;;;;;;24.30;11.47;;;5.40;56.30;;;;;;5038890;28;20022;-93
2022/01/23 13:00:00;;;;;;;25.97;11.20;;;5.30;56.30;;;;;;5037639;28;20363;-93
2022/01/23 13:02:32;;;;;;;23.80;11.10;;;5.20;56.40;;;;;;5039653;28;20438;-95
2022/01/23 13:04:58;;;;;;;25.03;11.17;;;5.10;56.50;;;;;;5039109;28;20020;-94
2022/01/23 13:10:37;;;;;;;21.50;9.50;;;4.90;56.80;;;;;;5021084;28;20061;-94
2022/01/23 13:16:15;;;;;;;25.03;11.07;;;4.80;56.90;;;;;;5022347;28;20032;-94
2022/01/23 13:19:16;;;;;;;34.20;11.77;;;4.80;57.00;;;;;;5035132;28;20041;-94
2022/01/23 13:30:11;;;;;;;42.50;18.27;;;4.80;57.30;;;;;;5020827;28;20029;-93
2022/01/23 13:35:08;;;;;;;;;;;4.70;57.50;;;;;;5020674;28;20033;-94
2022/01/23 13:37:39;;;;;;;23.13;10.13;;;4.70;57.70;;;;;;5035655;28;19909;-94
2022/01/23 13:40:14;;;;;;;26.23;10.23;;;4.70;57.60;;;;;;5035175;28;20022;-93
2022/01/23 13:48:00;;;;;;;22.93;9.90;;;4.60;57.80;;;;;;5035586;28;20018;-91
2022/01/23 13:59:59;;;;;;;36.60;15.83;;;4.20;58.60;;;;;;5022120;28;20107;-95
2022/01/23 14:02:28;;;;;;;38.60;16.60;;;4.10;58.70;;;;;;5046082;28;20578;-94
2022/01/23 14:05:08;;;;;;;35.93;14.00;;;4.00;59.00;;;;;;5055155;28;20037;-94
2022/01/23 14:07:35;;;;;;;39.00;15.77;;;3.90;59.20;;;;;;5055289;28;20033;-94
2022/01/23 14:10:14;;;;;;;38.80;16.50;;;3.90;59.30;;;;;;5054823;28;20030;-94
2022/01/23 14:12:41;;;;;;;42.50;17.73;;;3.80;59.50;;;;;;5055620;28;20033;-94
2022/01/23 14:15:16;;;;;;;33.87;14.87;;;3.80;59.60;;;;;;5055598;28;20056;-94
2022/01/23 14:17:42;;;;;;;33.87;15.03;;;3.80;59.70;;;;;;5056604;28;20056;-94
2022/01/23 14:20:17;;;;;;;42.33;17.73;;;3.70;59.80;;;;;;5061484;28;20168;-94
2022/01/23 14:22:46;;;;;;;49.17;19.77;;;3.60;60.00;;;;;;5057737;28;20026;-94
2022/01/23 14:25:21;;;;;;;53.60;19.43;;;3.50;60.10;;;;;;5056704;28;20390;-94
2022/01/23 14:28:10;;;;;;;43.83;20.00;;;3.50;60.30;;;;;;5056513;28;20025;-92
2022/01/23 14:31:04;;;;;;;43.70;19.00;;;3.40;60.50;;;;;;5056417;28;20030;-94
2022/01/23 14:33:35;;;;;;;51.57;20.70;;;3.40;60.50;;;;;;5038572;28;20036;-93
2022/01/23 14:36:17;;;;;;;39.00;16.50;;;3.40;60.70;;;;;;5057245;28;20029;-94
2022/01/23 14:38:58;;;;;;;44.57;19.17;;;3.30;61.00;;;;;;5055967;28;20068;-93
2022/01/23 14:41:27;;;;;;;49.67;20.77;;;3.30;61.10;;;;;;5055958;28;20030;-94
2022/01/23 14:43:52;;;;;;;56.83;24.23;;;3.30;61.10;;;;;;5056022;28;20124;-94
2022/01/23 14:46:18;;;;;;;;;;;3.30;61.20;;;;;;5056935;28;20056;-94
2022/01/23 14:48:48;;;;;;;50.77;20.97;;;3.30;61.40;;;;;;5056175;28;19912;-94
2022/01/23 14:51:20;;;;;;;52.90;21.40;;;3.30;61.20;;;;;;5055190;28;20116;-95
2022/01/23 14:53:47;;;;;;;43.10;19.13;;;3.20;61.40;;;;;;5055586;28;20050;-94
2022/01/23 14:56:14;;;;;;;45.30;18.10;;;3.10;61.60;;;;;;5055525;28;20026;-95
2022/01/23 14:58:41;;;;;;;39.97;16.50;;;3.00;61.90;;;;;;5056146;28;20128;-95
2022/01/23 15:01:10;;;;;;;35.90;14.30;;;3.00;62.10;;;;;;5063112;28;20028;-94
2022/01/23 15:03:37;;;;;;;33.73;14.20;;;2.90;62.20;;;;;;5067785;28;20099;-92
2022/01/23 15:06:03;;;;;;;32.13;13.17;;;3.00;62.40;;;;;;5065099;28;20036;-95
2022/01/23 15:08:29;;;;;;;;;;;3.00;62.50;;;;;;5059792;28;20111;-93
2022/01/23 15:10:59;;;;;;;27.53;11.17;;;3.00;62.50;;;;;;5054218;28;19893;-91
2022/01/23 15:13:26;;;;;;;35.47;15.57;;;2.90;62.30;;;;;;5071900;28;20041;-93
2022/01/23 15:15:54;;;;;;;25.00;10.97;;;2.90;62.40;;;;;;5072135;28;20010;-95
2022/01/23 15:18:20;;;;;;;24.47;10.23;;;2.90;62.60;;;;;;5072834;28;20044;-93
2022/01/23 15:20:48;;;;;;;;;;;2.90;62.70;;;;;;5073476;28;20014;-94
2022/01/23 15:23:15;;;;;;;26.90;11.20;;;2.80;62.70;;;;;;5073275;28;19917;-94
2022/01/23 15:25:45;;;;;;;27.73;11.40;;;2.80;62.50;;;;;;5073399;28;20013;-94
2022/01/23 15:28:11;;;;;;;28.40;12.17;;;2.80;62.80;;;;;;5073217;28;20018;-94
2022/01/23 15:30:38;;;;;;;33.47;12.93;;;2.70;63.10;;;;;;5058265;28;20483;-95
2022/01/23 15:33:06;;;;;;;34.43;15.37;;;2.70;63.30;;;;;;5057198;28;20022;-92
2022/01/23 15:35:34;;;;;;;34.17;13.93;;;2.70;63.50;;;;;;5055416;28;20122;-95
2022/01/23 15:38:00;;;;;;;61.10;21.67;;;2.60;63.60;;;;;;5055404;28;20026;-95
2022/01/23 15:40:26;;;;;;;44.23;19.80;;;2.60;63.60;;;;;;5054912;28;20018;-95
2022/01/23 15:42:53;;;;;;;;;;;2.60;63.70;;;;;;5055371;28;20063;-95
2022/01/23 15:45:21;;;;;;;25.65;10.73;;;2.60;63.70;;;;;;5055276;28;19924;-95
2022/01/23 15:47:47;;;;;;;33.23;14.33;;;2.50;63.40;;;;;;5058716;28;20079;-95
2022/01/23 15:50:13;;;;;;;;;;;2.50;63.60;;;;;;5059189;28;20026;-94
2022/01/23 15:52:39;;;;;;;45.13;15.50;;;2.40;63.70;;;;;;5058111;28;19991;-94
2022/01/23 15:55:09;;;;;;;40.30;15.77;;;2.40;63.50;;;;;;5058325;28;20411;-94
2022/01/23 15:57:35;;;;;;;37.07;16.00;;;2.40;63.90;;;;;;5058855;28;20022;-94
2022/01/23 16:00:01;;;;;;;;;;;2.40;64.00;;;;;;5058921;28;20009;-95
2022/01/23 16:02:26;;;;;;;36.73;15.07;;;2.40;64.10;;;;;;5057726;28;19909;-92
2022/01/23 16:04:53;;;;;;;35.88;15.77;;;2.40;63.90;;;;;;5059631;28;20052;-93
2022/01/23 16:07:19;;;;;;;37.77;15.43;;;2.30;64.10;;;;;;5062991;28;20021;-94
2022/01/23 16:09:45;;;;;;;;;;;2.30;64.30;;;;;;5057376;28;20021;-95
2022/01/23 16:12:12;;;;;;;64.20;26.93;;;2.30;64.40;;;;;;5057874;28;19915;-94
2022/01/23 16:14:38;;;;;;;76.57;28.87;;;2.30;64.20;;;;;;5056825;28;20128;-94